createdAt,value
2018-06-21T07:57:11.784Z,69.60
2018-06-21T07:59:41.294Z,69.70
2018-06-21T08:02:09.532Z,68.70
2018-06-21T08:04:37.709Z,69.10
2018-06-21T08:07:05.865Z,68.20
2018-06-21T08:09:34.040Z,68.00
2018-06-21T08:12:02.205Z,66.90
2018-06-21T08:14:30.444Z,65.60
2018-06-21T08:16:58.598Z,65.40
2018-06-21T08:19:26.791Z,65.60
2018-06-21T08:21:54.963Z,65.00
2018-06-21T08:24:23.133Z,63.30
2018-06-21T08:26:51.339Z,63.00
2018-06-21T08:29:19.448Z,63.80
2018-06-21T08:31:47.621Z,63.60
2018-06-21T08:34:15.797Z,62.40
2018-06-21T08:36:43.956Z,61.10
2018-06-21T08:39:12.131Z,61.70
2018-06-21T08:41:40.297Z,62.80
2018-06-21T08:44:08.460Z,63.60
2018-06-21T08:46:36.721Z,64.70
2018-06-21T08:49:04.897Z,65.00
2018-06-21T08:51:33.081Z,65.20
2018-06-21T08:54:01.284Z,65.00
2018-06-21T08:56:29.491Z,65.10
2018-06-21T08:58:57.679Z,64.00
2018-06-21T09:01:25.828Z,65.50
2018-06-21T09:03:54.119Z,65.20
2018-06-21T09:06:23.041Z,66.30
2018-06-21T09:08:51.252Z,64.80
2018-06-21T09:11:19.422Z,64.20
2018-06-21T09:13:47.613Z,64.40
2018-06-21T09:16:17.027Z,65.90
2018-06-21T09:18:45.228Z,66.00
2018-06-21T09:21:13.425Z,65.00
2018-06-21T09:23:41.592Z,63.30
2018-06-21T09:26:09.792Z,64.10
2018-06-21T09:28:38.037Z,64.60
2018-06-21T09:31:06.516Z,63.50
2018-06-21T09:33:34.684Z,62.70
2018-06-21T09:36:02.900Z,63.90
2018-06-21T09:38:36.507Z,63.60
2018-06-21T09:41:10.236Z,62.80
2018-06-21T09:43:50.300Z,62.30
2018-06-21T09:46:18.552Z,62.20
2018-06-21T09:48:52.632Z,63.20
2018-06-21T09:51:21.292Z,61.40
2018-06-21T09:53:50.405Z,62.50
2018-06-21T09:56:19.790Z,62.50
2018-06-21T09:58:47.977Z,60.50
2018-06-21T10:01:17.004Z,59.70
2018-06-21T10:03:45.901Z,60.00
2018-06-21T10:06:14.093Z,60.60
2018-06-21T10:08:42.324Z,60.20
2018-06-21T10:11:10.492Z,59.90
2018-06-21T10:13:38.684Z,58.80
2018-06-21T10:16:06.870Z,58.90
2018-06-21T10:18:35.053Z,59.20
2018-06-21T10:21:03.230Z,58.90
2018-06-21T10:23:31.400Z,60.50
2018-06-21T10:25:59.570Z,61.90
2018-06-21T10:28:27.753Z,60.40
2018-06-21T10:30:55.928Z,60.10
2018-06-21T10:33:24.112Z,60.70
2018-06-21T10:35:52.288Z,61.10
2018-06-21T10:38:20.492Z,61.40
2018-06-21T10:40:50.281Z,60.10
2018-06-21T10:43:18.511Z,59.50
2018-06-21T10:45:46.664Z,58.90
2018-06-21T10:48:14.863Z,59.80
2018-06-21T10:50:43.070Z,58.40
2018-06-21T10:53:11.253Z,58.60
2018-06-21T10:55:39.454Z,57.00
2018-06-21T10:58:08.514Z,56.20
2018-06-21T11:05:54.985Z,55.50
2018-06-21T11:08:23.200Z,55.10
2018-06-21T11:10:51.399Z,57.20
2018-06-21T11:13:19.573Z,58.00
2018-06-21T11:15:47.745Z,58.70
2018-06-21T11:18:15.933Z,57.50
2018-06-21T11:20:44.469Z,56.30
2018-06-21T11:23:14.644Z,56.00
2018-06-21T11:25:42.812Z,55.10
2018-06-21T11:28:12.213Z,53.30
2018-06-21T11:30:41.434Z,53.30
2018-06-21T11:33:09.630Z,54.10
2018-06-21T11:35:37.865Z,56.10
2018-06-21T11:38:08.189Z,55.70
2018-06-21T11:40:36.309Z,55.80
2018-06-21T11:43:05.166Z,57.30
2018-06-21T11:45:33.332Z,55.60
2018-06-21T11:48:01.520Z,56.10
2018-06-21T11:50:30.826Z,55.50
2018-06-21T11:52:59.002Z,54.50
2018-06-21T11:55:27.166Z,54.80
2018-06-21T11:57:55.328Z,53.60
2018-06-21T12:00:23.505Z,54.10
2018-06-21T12:02:51.673Z,53.80
2018-06-21T12:05:19.857Z,53.30
2018-06-21T12:07:48.030Z,51.40
2018-06-21T12:10:16.220Z,51.10
2018-06-21T12:12:44.404Z,50.80
2018-06-21T12:15:12.580Z,52.90
2018-06-21T12:17:40.741Z,54.40
2018-06-21T12:20:08.917Z,56.80
2018-06-21T12:22:37.115Z,58.40
2018-06-21T12:25:05.382Z,60.30
2018-06-21T12:27:33.562Z,62.20
2018-06-21T12:30:01.722Z,62.50
2018-06-21T12:32:29.954Z,61.60
2018-06-21T12:34:58.145Z,61.00
2018-06-21T12:37:26.334Z,61.00
2018-06-21T12:39:54.507Z,61.90
2018-06-21T12:42:22.692Z,62.10
2018-06-21T12:44:50.858Z,62.20
2018-06-21T12:47:19.043Z,62.40
2018-06-21T12:49:47.220Z,62.90
2018-06-21T12:52:15.403Z,63.90
2018-06-21T12:54:43.570Z,63.20
2018-06-21T12:59:39.688Z,62.00
2018-06-21T13:02:07.893Z,61.40
2018-06-21T13:04:36.113Z,61.30
2018-06-21T13:07:04.286Z,61.00
2018-06-21T13:09:43.906Z,60.50
2018-06-21T13:12:26.233Z,58.80
2018-06-21T13:14:55.017Z,58.30
2018-06-21T13:17:23.180Z,58.10
2018-06-21T13:19:51.790Z,57.70
2018-06-21T13:22:20.054Z,58.60
2018-06-21T13:25:50.879Z,58.40
2018-06-21T13:28:19.065Z,57.80
2018-06-21T13:30:47.221Z,58.50
2018-06-21T13:33:15.422Z,58.90
2018-06-21T13:35:43.591Z,59.60
2018-06-21T13:38:11.748Z,56.80
2018-06-21T13:40:39.904Z,57.70
2018-06-21T13:43:08.059Z,65.80
2018-06-21T13:45:36.224Z,72.70
2018-06-21T13:48:04.416Z,78.00
2018-06-21T13:50:32.556Z,81.30
2018-06-21T13:53:00.757Z,85.30
2018-06-21T13:55:28.905Z,89.50
2018-06-21T13:57:57.070Z,91.60
2018-06-21T14:00:25.225Z,92.60
2018-06-21T14:02:58.942Z,93.40
2018-06-21T14:05:27.137Z,94.80
2018-06-21T14:07:55.486Z,95.60
2018-06-21T14:10:23.488Z,95.90
2018-06-21T14:12:51.741Z,96.50
2018-06-21T14:15:20.166Z,96.70
2018-06-21T14:17:48.680Z,96.60
2018-06-21T14:20:20.338Z,96.00
2018-06-21T14:22:48.544Z,94.70
2018-06-21T14:25:17.118Z,93.50
2018-06-21T14:27:45.299Z,94.00
2018-06-21T14:30:13.590Z,93.90
2018-06-21T14:32:42.148Z,92.50
2018-06-21T14:35:13.206Z,92.10
2018-06-21T14:37:41.390Z,92.10
2018-06-21T14:40:09.568Z,90.60
2018-06-21T14:42:37.753Z,90.40
2018-06-21T14:45:05.946Z,89.60
2018-06-21T14:47:34.202Z,88.10
2018-06-21T14:50:02.369Z,87.40
2018-06-21T14:52:30.528Z,87.40
2018-06-21T14:54:58.862Z,87.10
2018-06-21T14:57:27.185Z,88.00
2018-06-21T14:59:55.485Z,87.80
2018-06-21T15:02:23.720Z,88.90
2018-06-21T15:04:54.100Z,85.20
2018-06-21T15:07:25.224Z,82.70
2018-06-21T15:09:53.477Z,81.50
2018-06-21T15:12:22.985Z,80.90
2018-06-21T15:14:51.197Z,82.30
2018-06-21T15:17:19.405Z,82.60
2018-06-21T15:19:47.556Z,83.20
2018-06-21T15:22:15.725Z,80.10
2018-06-21T15:24:43.901Z,78.60
2018-06-21T15:27:12.096Z,77.60
2018-06-21T15:29:40.289Z,75.10
2018-06-21T15:32:08.808Z,71.90
2018-06-21T15:34:40.052Z,69.40
2018-06-21T15:37:08.222Z,67.00
2018-06-21T15:42:05.270Z,64.10
2018-06-21T15:44:33.449Z,65.60
2018-06-21T15:47:01.625Z,64.90
2018-06-21T15:49:30.767Z,62.50
2018-06-21T15:51:58.946Z,60.70
2018-06-21T15:54:27.122Z,59.40
2018-06-21T15:56:55.297Z,58.70
2018-06-21T15:59:23.526Z,57.70
2018-06-21T16:01:52.684Z,57.10
2018-06-21T16:04:21.474Z,56.70
2018-06-21T16:06:52.776Z,56.40
2018-06-21T16:09:20.954Z,56.00
2018-06-21T16:11:49.125Z,54.50
2018-06-21T16:14:17.351Z,56.60
2018-06-21T16:16:45.525Z,55.80
2018-06-21T16:19:13.711Z,57.20
2018-06-21T16:21:41.952Z,56.80
2018-06-21T16:24:10.134Z,56.40
2018-06-21T16:26:38.309Z,56.70
2018-06-21T16:29:07.529Z,56.40
2018-06-21T16:31:36.009Z,55.60
2018-06-21T16:34:04.213Z,56.30
2018-06-21T16:36:32.392Z,55.80
2018-06-21T16:39:00.711Z,55.60
2018-06-21T16:41:28.871Z,55.60
2018-06-21T16:43:57.852Z,55.90
2018-06-21T16:46:26.040Z,53.80
2018-06-21T16:48:54.195Z,53.80
2018-06-21T16:51:22.404Z,54.40
2018-06-21T16:53:50.552Z,54.90
2018-06-21T16:56:18.767Z,54.70
2018-06-21T16:58:46.941Z,54.80
2018-06-21T17:01:15.109Z,54.30
2018-06-21T18:31:41.318Z,55.20
2018-06-21T18:34:09.501Z,66.50
2018-06-21T18:36:37.888Z,67.90
2018-06-21T18:39:08.342Z,69.00
2018-06-21T18:41:36.528Z,70.00
2018-06-21T18:44:04.733Z,70.80
2018-06-21T18:46:32.965Z,71.10
2018-06-21T18:49:01.177Z,71.90
2018-06-21T18:51:29.395Z,72.60
2018-06-21T18:53:57.576Z,73.60
2018-06-21T18:56:25.757Z,73.70
2018-06-21T18:58:53.921Z,74.50
2018-06-21T19:01:24.839Z,74.60
2018-06-21T19:03:53.049Z,75.70
2018-06-21T19:06:26.782Z,75.80
2018-06-21T19:09:02.060Z,75.20
2018-06-21T19:11:35.924Z,75.60
2018-06-21T19:14:04.205Z,75.60
2018-06-21T19:16:32.413Z,76.20
2018-06-21T19:19:00.622Z,76.70
2018-06-21T19:21:28.810Z,76.80
2018-06-21T19:23:57.060Z,77.00
2018-06-21T19:26:25.498Z,77.40
2018-06-21T19:28:53.712Z,77.70
2018-06-21T19:31:21.974Z,78.20
2018-06-21T19:33:50.202Z,78.50
2018-06-21T19:36:18.406Z,78.50
2018-06-21T19:38:46.600Z,78.50
2018-06-21T19:41:14.782Z,78.80
2018-06-21T19:43:42.980Z,78.70
2018-06-21T19:46:11.185Z,79.20
2018-06-21T19:48:39.646Z,79.40
2018-06-21T19:51:07.942Z,78.90
2018-06-21T19:53:36.153Z,79.10
2018-06-21T19:56:04.398Z,79.20
2018-06-21T19:58:32.589Z,79.40
2018-06-21T20:01:00.777Z,79.00
2018-06-21T20:03:29.020Z,77.70
2018-06-21T20:05:57.210Z,77.40
2018-06-21T20:08:25.409Z,77.20
2018-06-21T20:10:59.047Z,76.30
2018-06-21T20:13:27.221Z,76.00
2018-06-21T20:15:55.395Z,75.90
2018-06-21T20:18:23.652Z,75.70
2018-06-21T20:20:51.749Z,75.70
2018-06-21T20:23:20.532Z,75.20
2018-06-21T20:25:48.894Z,75.50
2018-06-21T20:28:17.619Z,75.40
2018-06-21T20:30:45.802Z,74.90
2018-06-21T20:33:14.008Z,74.30
2018-06-21T20:35:42.314Z,72.70
2018-06-21T20:38:10.541Z,73.00
2018-06-21T20:40:38.886Z,73.10
2018-06-21T20:43:07.048Z,73.00
2018-06-21T20:45:35.228Z,72.90
2018-06-21T20:48:03.421Z,73.30
2018-06-21T20:50:31.644Z,73.60
2018-06-21T20:52:59.760Z,73.80
2018-06-21T20:55:27.920Z,73.70
2018-06-21T20:57:56.105Z,74.00
2018-06-21T21:00:24.270Z,74.00
2018-06-21T21:05:20.384Z,73.30
2018-06-21T21:07:49.864Z,73.50
2018-06-21T21:10:18.712Z,73.80
2018-06-21T21:12:47.028Z,73.40
